createdAt,value
2018-03-20T00:01:10.114Z,14.23
2018-03-20T00:03:39.400Z,13.93
2018-03-20T00:06:08.645Z,15.07
2018-03-20T00:08:38.705Z,14.23
2018-03-20T00:11:08.192Z,12.13
2018-03-20T00:13:37.550Z,14.30
2018-03-20T00:16:06.805Z,16.10
2018-03-20T00:18:36.899Z,13.10
2018-03-20T00:21:06.184Z,15.90
2018-03-20T00:23:35.487Z,14.57
2018-03-20T00:26:05.602Z,14.17
2018-03-20T00:28:35.650Z,12.60
2018-03-20T00:31:04.964Z,14.30
2018-03-20T00:33:34.224Z,12.53
2018-03-20T00:36:03.527Z,14.53
2018-03-20T00:38:32.786Z,13.93
2018-03-20T00:41:02.839Z,13.43
2018-03-20T00:43:32.115Z,14.73
2018-03-20T00:46:01.371Z,12.20
2018-03-20T00:48:30.627Z,16.00
2018-03-20T00:50:59.879Z,16.70
2018-03-20T00:53:29.164Z,15.73
2018-03-20T00:55:59.238Z,15.57
2018-03-20T00:58:28.552Z,15.40
2018-03-20T01:00:57.873Z,13.07
2018-03-20T01:03:27.172Z,14.40
2018-03-20T01:05:56.487Z,14.77
2018-03-20T01:08:25.761Z,13.40
2018-03-20T01:10:55.075Z,11.70
2018-03-20T01:13:24.443Z,13.17
2018-03-20T01:15:53.755Z,16.60
2018-03-20T01:18:23.090Z,13.10
2018-03-20T01:20:52.394Z,13.40
2018-03-20T01:23:21.847Z,16.50
2018-03-20T01:25:51.940Z,11.60
2018-03-20T01:28:21.197Z,18.03
2018-03-20T01:30:51.362Z,11.67
2018-03-20T01:33:20.667Z,11.37
2018-03-20T01:35:49.986Z,14.33
2018-03-20T01:38:19.332Z,15.23
2018-03-20T01:40:48.595Z,11.73
2018-03-20T01:43:18.702Z,12.67
2018-03-20T01:45:47.971Z,13.47
2018-03-20T01:48:17.281Z,13.63
2018-03-20T01:50:46.565Z,13.03
2018-03-20T01:53:19.876Z,11.77
2018-03-20T01:55:49.951Z,13.40
2018-03-20T01:58:24.089Z,12.80
2018-03-20T02:00:53.397Z,13.57
2018-03-20T02:03:22.720Z,15.47
2018-03-20T02:05:52.348Z,13.43
2018-03-20T02:08:22.426Z,12.57
2018-03-20T02:10:51.770Z,12.43
2018-03-20T02:13:21.061Z,12.80
2018-03-20T02:15:50.386Z,13.33
2018-03-20T02:18:19.826Z,14.33
2018-03-20T02:20:49.142Z,14.17
2018-03-20T02:23:18.588Z,14.67
2018-03-20T02:25:47.845Z,14.90
2018-03-20T02:28:17.128Z,16.87
2018-03-20T02:30:46.412Z,15.80
2018-03-20T02:33:15.735Z,13.07
2018-03-20T02:35:45.033Z,13.10
2018-03-20T02:38:14.317Z,13.07
2018-03-20T02:40:43.586Z,12.27
2018-03-20T02:43:13.686Z,10.93
2018-03-20T02:45:42.967Z,13.00
2018-03-20T02:48:12.277Z,12.87
2018-03-20T02:50:41.555Z,14.33
2018-03-20T02:53:10.801Z,13.40
2018-03-20T02:55:40.106Z,14.37
2018-03-20T02:58:09.391Z,12.70
2018-03-20T03:00:39.417Z,12.43
2018-03-20T03:03:09.444Z,14.07
2018-03-20T03:05:38.763Z,14.33
2018-03-20T03:08:08.004Z,12.83
2018-03-20T03:10:37.293Z,12.17
2018-03-20T03:13:06.582Z,13.97
2018-03-20T03:15:35.814Z,15.47
2018-03-20T03:18:05.860Z,13.30
2018-03-20T03:20:35.133Z,13.60
2018-03-20T03:23:04.582Z,14.17
2018-03-20T03:25:34.622Z,13.83
2018-03-20T03:28:03.909Z,13.27
2018-03-20T03:30:33.172Z,15.60
2018-03-20T03:33:02.533Z,13.13
2018-03-20T03:35:34.810Z,13.83
2018-03-20T03:38:04.078Z,13.70
2018-03-20T03:40:33.368Z,13.77
2018-03-20T03:43:02.657Z,16.87
2018-03-20T03:45:31.910Z,13.77
2018-03-20T03:48:01.210Z,14.93
2018-03-20T03:50:31.185Z,14.67
2018-03-20T03:53:00.446Z,15.20
2018-03-20T03:55:29.755Z,14.10
2018-03-20T03:57:59.054Z,13.10
2018-03-20T04:00:29.126Z,16.10
2018-03-20T04:02:58.347Z,15.90
2018-03-20T04:05:27.689Z,15.07
2018-03-20T04:07:56.914Z,14.70
2018-03-20T04:10:26.210Z,14.87
2018-03-20T04:12:55.431Z,17.03
2018-03-20T04:15:24.843Z,18.37
2018-03-20T04:17:54.091Z,14.40
2018-03-20T04:20:23.379Z,16.40
2018-03-20T04:22:52.695Z,15.90
2018-03-20T04:25:21.944Z,14.07
2018-03-20T04:27:51.250Z,17.27
2018-03-20T04:30:21.335Z,16.37
2018-03-20T04:32:50.642Z,16.20
2018-03-20T04:35:19.913Z,17.17
2018-03-20T04:37:49.171Z,15.17
2018-03-20T04:40:18.481Z,20.20
2018-03-20T04:42:47.680Z,15.93
2018-03-20T04:45:16.903Z,16.63
2018-03-20T04:47:46.127Z,17.87
2018-03-20T04:50:15.376Z,19.07
2018-03-20T04:52:44.741Z,21.93
2018-03-20T04:55:13.989Z,16.33
2018-03-20T04:57:44.048Z,18.73
2018-03-20T05:00:13.238Z,15.80
2018-03-20T05:02:43.229Z,17.37
2018-03-20T05:05:13.303Z,19.40
2018-03-20T05:07:42.552Z,17.83
2018-03-20T05:10:11.878Z,22.50
2018-03-20T05:12:41.126Z,16.33
2018-03-20T05:15:11.331Z,17.50
2018-03-20T05:17:40.586Z,15.27
2018-03-20T05:20:22.305Z,16.87
2018-03-20T05:26:03.040Z,18.20
2018-03-20T05:28:32.302Z,19.93
2018-03-20T05:31:02.373Z,22.33
2018-03-20T05:33:31.632Z,20.03
2018-03-20T05:36:00.911Z,18.13
2018-03-20T05:38:30.207Z,18.50
2018-03-20T05:40:59.494Z,15.60
2018-03-20T05:43:29.576Z,18.97
2018-03-20T05:45:58.886Z,19.93
2018-03-20T05:48:43.927Z,16.13
2018-03-20T05:51:18.938Z,18.27
2018-03-20T05:53:48.393Z,15.57
2018-03-20T05:56:18.702Z,20.13
2018-03-20T05:58:48.152Z,16.97
2018-03-20T06:01:18.551Z,17.30
2018-03-20T06:03:48.366Z,18.40
2018-03-20T06:06:18.558Z,17.17
2018-03-20T06:08:48.594Z,20.97
2018-03-20T06:11:18.029Z,17.97
2018-03-20T06:13:47.509Z,17.60
2018-03-20T06:16:16.864Z,17.73
2018-03-20T06:18:47.130Z,23.57
2018-03-20T06:21:16.731Z,16.87
2018-03-20T06:23:46.272Z,18.00
2018-03-20T06:26:15.642Z,18.90
2018-03-20T06:28:44.946Z,18.97
2018-03-20T06:31:14.247Z,18.80
2018-03-20T06:33:43.521Z,16.07
2018-03-20T06:36:13.569Z,16.47
2018-03-20T06:38:43.842Z,19.97
2018-03-20T06:41:13.225Z,17.63
2018-03-20T06:43:42.753Z,18.97
2018-03-20T06:46:12.088Z,17.20
2018-03-20T06:48:41.463Z,17.10
2018-03-20T06:51:11.529Z,17.77
2018-03-20T06:53:40.870Z,16.10
2018-03-20T06:56:10.199Z,20.40
2018-03-20T06:58:39.529Z,17.37
2018-03-20T07:01:09.382Z,17.93
2018-03-20T07:03:39.361Z,15.07
2018-03-20T07:06:08.652Z,14.93
2018-03-20T07:08:38.071Z,16.70
2018-03-20T07:11:07.316Z,15.67
2018-03-20T07:13:37.371Z,17.97
2018-03-20T07:16:06.679Z,14.30
2018-03-20T07:21:06.398Z,17.97
2018-03-20T07:23:35.835Z,14.40
2018-03-20T07:26:05.060Z,14.23
2018-03-20T07:28:34.268Z,15.57
2018-03-20T07:31:04.253Z,15.03
2018-03-20T07:33:33.576Z,15.10
2018-03-20T07:36:02.854Z,13.80
2018-03-20T07:38:32.127Z,15.30
2018-03-20T07:41:02.096Z,15.17
2018-03-20T07:43:31.349Z,13.47
2018-03-20T07:46:00.644Z,13.80
2018-03-20T07:48:30.000Z,14.17
2018-03-20T07:50:59.181Z,10.67
2018-03-20T07:53:28.602Z,15.37
2018-03-20T07:55:57.823Z,13.40
2018-03-20T07:58:27.331Z,14.50
2018-03-20T08:00:56.595Z,13.40
2018-03-20T08:03:25.937Z,12.30
2018-03-20T08:05:55.252Z,12.27
2018-03-20T08:08:24.486Z,15.47
2018-03-20T08:10:53.983Z,12.73
2018-03-20T08:13:23.279Z,11.83
2018-03-20T08:15:53.237Z,13.63
2018-03-20T08:18:22.659Z,13.63
2018-03-20T08:20:51.920Z,13.10
2018-03-20T08:23:21.961Z,13.10
2018-03-20T08:25:51.298Z,21.03
2018-03-20T08:28:20.558Z,12.07
2018-03-20T08:30:49.780Z,14.20
2018-03-20T08:33:19.073Z,12.43
2018-03-20T08:35:48.367Z,12.70
2018-03-20T08:38:18.885Z,11.27
2018-03-20T08:40:48.184Z,14.60
2018-03-20T08:43:17.524Z,11.70
2018-03-20T08:45:46.763Z,11.93
2018-03-20T08:48:16.151Z,10.70
2018-03-20T08:50:45.402Z,12.87
2018-03-20T08:53:15.497Z,11.13
2018-03-20T08:55:44.722Z,13.37
2018-03-20T08:58:13.923Z,10.10
2018-03-20T09:00:43.183Z,12.10
2018-03-20T09:03:12.460Z,10.23
2018-03-20T09:05:41.721Z,11.27
2018-03-20T09:08:11.071Z,11.67
2018-03-20T09:10:40.381Z,12.17
2018-03-20T09:13:09.640Z,11.10
2018-03-20T09:15:40.360Z,11.00
2018-03-20T09:18:09.545Z,11.40
2018-03-20T09:20:38.723Z,12.63
2018-03-20T09:23:07.980Z,10.23
2018-03-20T09:25:37.247Z,10.73
2018-03-20T09:28:07.317Z,10.40
2018-03-20T09:30:36.567Z,10.83
2018-03-20T09:33:06.550Z,10.37
2018-03-20T09:35:35.734Z,11.37
2018-03-20T09:38:04.936Z,9.90
2018-03-20T09:40:34.200Z,9.67
2018-03-20T09:43:03.500Z,12.67
2018-03-20T09:45:32.816Z,10.07
2018-03-20T09:48:02.054Z,10.10
2018-03-20T09:50:31.356Z,12.87
2018-03-20T09:53:00.606Z,8.97
2018-03-20T09:55:29.821Z,9.37
2018-03-20T09:57:59.826Z,9.03
2018-03-20T10:00:29.029Z,9.23
2018-03-20T10:02:58.240Z,9.53
2018-03-20T10:05:27.454Z,8.53
2018-03-20T10:07:56.841Z,9.13
2018-03-20T10:10:26.133Z,10.07
2018-03-20T10:12:55.354Z,11.20
2018-03-20T10:15:24.660Z,7.03
2018-03-20T10:17:53.896Z,9.60
2018-03-20T10:20:23.128Z,10.57
2018-03-20T10:22:53.261Z,10.40
2018-03-20T10:25:22.696Z,9.53
2018-03-20T10:27:52.687Z,10.73
2018-03-20T10:30:21.984Z,11.47
2018-03-20T10:32:51.219Z,8.23
2018-03-20T10:35:20.673Z,11.20
2018-03-20T10:37:49.931Z,11.10
2018-03-20T10:40:19.453Z,10.40
2018-03-20T10:42:49.382Z,11.27
2018-03-20T10:45:18.690Z,9.97
2018-03-20T10:47:48.012Z,11.83
2018-03-20T10:50:18.153Z,12.83
2018-03-20T10:52:47.412Z,10.43
2018-03-20T10:55:16.608Z,9.37
2018-03-20T10:57:46.631Z,10.60
2018-03-20T11:00:16.648Z,10.00
2018-03-20T11:02:52.517Z,7.80
2018-03-20T11:05:22.561Z,9.67
2018-03-20T11:07:51.881Z,10.20
2018-03-20T11:10:21.320Z,8.50
2018-03-20T11:12:50.764Z,8.03
2018-03-20T11:15:20.044Z,8.00
2018-03-20T11:17:49.588Z,8.70
2018-03-20T11:20:18.931Z,10.60
2018-03-20T11:22:48.358Z,9.20
2018-03-20T11:25:18.389Z,10.27
2018-03-20T11:27:47.663Z,8.57
2018-03-20T11:30:16.983Z,9.37
2018-03-20T11:32:46.948Z,8.63
2018-03-20T11:35:17.126Z,10.67
2018-03-20T11:37:46.391Z,10.53
2018-03-20T11:40:15.695Z,10.50
2018-03-20T11:42:44.892Z,9.77
2018-03-20T11:45:14.140Z,11.67
2018-03-20T11:47:43.387Z,9.60
2018-03-20T11:50:12.625Z,9.37
2018-03-20T11:52:42.027Z,11.13
2018-03-20T11:55:11.249Z,9.97
2018-03-20T11:57:40.511Z,11.77
2018-03-20T12:00:09.766Z,12.87
2018-03-20T12:02:38.987Z,9.03
2018-03-20T12:05:08.227Z,12.90
2018-03-20T12:07:50.007Z,8.07
2018-03-20T12:10:19.294Z,9.47
2018-03-20T12:12:49.023Z,11.33
2018-03-20T12:15:18.268Z,13.80
2018-03-20T12:17:47.553Z,11.40
2018-03-20T12:20:16.833Z,14.17
2018-03-20T12:22:46.908Z,15.03
2018-03-20T12:25:16.173Z,15.47
2018-03-20T12:27:45.413Z,14.33
2018-03-20T12:30:14.647Z,14.63
2018-03-20T12:32:43.944Z,14.97
2018-03-20T12:35:13.179Z,11.83
2018-03-20T12:37:43.291Z,13.40
2018-03-20T12:40:12.507Z,15.03
2018-03-20T12:42:41.888Z,14.10
2018-03-20T12:45:11.124Z,15.67
2018-03-20T12:47:40.399Z,13.80
2018-03-20T12:50:09.666Z,15.30
2018-03-20T12:52:39.185Z,14.37
2018-03-20T12:55:08.397Z,13.30
2018-03-20T12:57:37.703Z,17.47
2018-03-20T13:00:06.904Z,16.27
2018-03-20T13:02:36.139Z,15.53
2018-03-20T13:05:05.553Z,17.07
2018-03-20T13:07:34.825Z,17.07
2018-03-20T13:10:04.064Z,17.40
2018-03-20T13:12:33.285Z,17.17
2018-03-20T13:15:02.586Z,14.27
2018-03-20T13:17:31.820Z,13.90
2018-03-20T13:20:01.011Z,13.37
2018-03-20T13:22:30.451Z,16.07
2018-03-20T13:24:59.811Z,14.07
2018-03-20T13:27:29.053Z,16.93
2018-03-20T13:29:58.470Z,12.20
2018-03-20T13:32:27.778Z,14.13
2018-03-20T13:34:57.100Z,11.60
2018-03-20T13:37:26.409Z,13.17
2018-03-20T13:39:55.724Z,12.33
2018-03-20T13:42:25.022Z,12.97
2018-03-20T13:44:54.327Z,14.43
2018-03-20T13:47:23.673Z,13.10
2018-03-20T13:49:52.924Z,15.27
2018-03-20T13:52:22.944Z,14.47
2018-03-20T13:54:52.279Z,13.93
2018-03-20T13:57:22.325Z,13.80
2018-03-20T13:59:51.670Z,14.67
2018-03-20T14:02:20.954Z,15.77
2018-03-20T14:04:50.220Z,15.43
2018-03-20T14:07:19.600Z,15.60
2018-03-20T14:09:48.984Z,14.33
2018-03-20T14:12:18.770Z,15.57
2018-03-20T14:14:48.065Z,15.40
2018-03-20T14:17:18.156Z,16.37
2018-03-20T14:19:47.530Z,14.70
2018-03-20T14:22:17.742Z,16.47
2018-03-20T14:24:47.823Z,15.30
2018-03-20T14:27:17.090Z,18.07
2018-03-20T14:29:46.339Z,16.23
2018-03-20T14:32:16.116Z,15.90
2018-03-20T14:34:45.527Z,18.73
2018-03-20T14:37:14.739Z,15.30
2018-03-20T14:39:44.065Z,17.33
2018-03-20T14:42:13.365Z,15.60
2018-03-20T14:44:42.593Z,13.40
2018-03-20T14:47:11.894Z,16.27
2018-03-20T14:49:41.144Z,19.57
2018-03-20T14:52:11.148Z,15.83
2018-03-20T14:54:40.553Z,16.93
2018-03-20T14:57:09.748Z,18.00
2018-03-20T14:59:38.979Z,17.37
2018-03-20T15:02:08.228Z,17.13
2018-03-20T15:04:37.410Z,16.27
2018-03-20T15:07:06.666Z,16.97
2018-03-20T15:09:36.016Z,16.43
2018-03-20T15:12:05.328Z,14.57
2018-03-20T15:14:34.648Z,15.90
2018-03-20T15:17:03.909Z,15.23
2018-03-20T15:19:33.872Z,18.87
2018-03-20T15:22:03.097Z,18.27
2018-03-20T15:24:32.408Z,19.73
2018-03-20T15:27:01.620Z,18.27
2018-03-20T15:29:30.854Z,17.17
2018-03-20T15:32:03.622Z,17.27
2018-03-20T15:34:32.902Z,17.47
2018-03-20T15:37:02.207Z,15.60
2018-03-20T15:39:31.381Z,21.13
2018-03-20T15:42:00.781Z,17.93
2018-03-20T15:44:30.141Z,19.27
2018-03-20T15:46:59.313Z,18.23
2018-03-20T15:49:28.588Z,15.63
2018-03-20T15:51:57.837Z,20.73
2018-03-20T15:54:27.111Z,16.90
2018-03-20T15:56:56.422Z,14.57
2018-03-20T15:59:26.847Z,19.17
2018-03-20T16:01:56.100Z,18.10
2018-03-20T16:04:25.385Z,19.40
2018-03-20T16:06:54.583Z,18.60
2018-03-20T16:09:24.661Z,15.80
2018-03-20T16:11:53.904Z,18.33
2018-03-20T16:14:24.004Z,19.00
2018-03-20T16:16:53.224Z,18.07
2018-03-20T16:19:22.540Z,16.63
2018-03-20T16:21:51.773Z,18.60
2018-03-20T16:24:21.769Z,19.40
2018-03-20T16:26:51.183Z,18.57
2018-03-20T16:29:20.421Z,17.43
2018-03-20T16:31:50.706Z,17.97
2018-03-20T16:34:20.049Z,17.97
2018-03-20T16:36:49.340Z,18.00
2018-03-20T16:39:18.610Z,16.37
2018-03-20T16:41:47.989Z,18.80
2018-03-20T16:44:21.873Z,17.80
2018-03-20T16:46:51.217Z,20.00
2018-03-20T16:49:20.539Z,20.33
2018-03-20T16:51:49.949Z,19.73
2018-03-20T16:54:19.259Z,16.50
2018-03-20T16:56:48.533Z,21.77
2018-03-20T16:59:17.796Z,19.27
2018-03-20T17:01:48.641Z,21.73
2018-03-20T17:04:17.897Z,18.57
2018-03-20T17:06:48.089Z,18.33
2018-03-20T17:09:17.327Z,19.03
2018-03-20T17:11:46.615Z,19.23
2018-03-20T17:14:16.860Z,17.33
2018-03-20T17:17:00.067Z,19.93
2018-03-20T17:19:29.259Z,20.67
2018-03-20T17:21:58.603Z,20.03
2018-03-20T17:24:29.181Z,19.47
2018-03-20T17:26:58.436Z,20.93
2018-03-20T17:29:27.666Z,18.83
2018-03-20T17:31:56.959Z,19.50
2018-03-20T17:34:26.413Z,20.30
2018-03-20T17:36:57.763Z,19.47
2018-03-20T17:39:27.075Z,20.60
2018-03-20T17:41:56.345Z,22.23
2018-03-20T17:44:25.646Z,19.97
2018-03-20T17:46:55.022Z,20.40
2018-03-20T17:49:24.239Z,22.30
2018-03-20T17:51:53.505Z,22.17
2018-03-20T17:54:22.773Z,21.80
2018-03-20T17:56:52.982Z,22.53
2018-03-20T17:59:22.215Z,20.67
2018-03-20T18:01:51.513Z,22.23
2018-03-20T18:04:33.288Z,22.87
2018-03-20T18:07:02.586Z,23.23
2018-03-20T18:09:31.885Z,22.17
2018-03-20T18:12:01.271Z,22.80
2018-03-20T18:14:36.704Z,19.13
2018-03-20T18:17:05.942Z,21.83
2018-03-20T18:19:43.637Z,19.37
2018-03-20T18:22:12.922Z,22.87
2018-03-20T18:24:42.219Z,21.53
2018-03-20T18:27:35.241Z,24.10
2018-03-20T18:30:10.088Z,21.57
2018-03-20T18:33:02.876Z,23.47
2018-03-20T18:35:39.863Z,23.30
2018-03-20T18:38:13.551Z,23.50
2018-03-20T18:40:42.798Z,22.97
2018-03-20T18:43:12.103Z,23.70
2018-03-20T18:45:41.381Z,24.63
2018-03-20T18:48:10.600Z,23.57
2018-03-20T18:50:39.784Z,23.33
2018-03-20T18:53:09.128Z,21.80
2018-03-20T18:55:38.343Z,22.47
2018-03-20T18:58:09.605Z,23.47
2018-03-20T19:00:38.897Z,21.47
2018-03-20T19:03:08.148Z,25.40
2018-03-20T19:05:38.220Z,21.77
2018-03-20T19:08:07.440Z,22.67
2018-03-20T19:10:36.775Z,24.10
2018-03-20T19:13:06.203Z,22.70
2018-03-20T19:15:45.197Z,23.30
2018-03-20T19:18:15.374Z,23.77
2018-03-20T19:20:49.314Z,20.57
2018-03-20T19:23:18.655Z,21.20
2018-03-20T19:25:48.677Z,20.33
2018-03-20T19:28:19.904Z,21.97
2018-03-20T19:30:50.557Z,19.80
2018-03-20T19:33:19.951Z,21.00
2018-03-20T19:35:49.192Z,20.17
2018-03-20T19:38:18.594Z,20.80
2018-03-20T19:40:47.836Z,18.47
2018-03-20T19:43:17.810Z,19.63
2018-03-20T19:45:47.105Z,17.60
2018-03-20T19:48:16.371Z,18.17
2018-03-20T19:50:45.591Z,16.43
2018-03-20T19:53:14.872Z,19.37
2018-03-20T19:55:44.111Z,18.90
2018-03-20T19:58:13.593Z,18.33
2018-03-20T20:00:42.806Z,17.50
2018-03-20T20:03:15.831Z,18.10
2018-03-20T20:05:53.468Z,17.93
2018-03-20T20:08:22.712Z,16.97
2018-03-20T20:10:52.758Z,16.73
2018-03-20T20:13:26.067Z,17.77
2018-03-20T20:15:55.295Z,16.57
2018-03-20T20:18:32.227Z,15.17
2018-03-20T20:21:01.446Z,16.10
2018-03-20T20:23:45.494Z,15.13
2018-03-20T20:26:15.482Z,13.60
2018-03-20T20:28:44.674Z,12.73
2018-03-20T20:31:14.002Z,14.77
2018-03-20T20:33:43.233Z,14.67
2018-03-20T20:36:12.443Z,14.63
2018-03-20T20:38:41.645Z,13.73
2018-03-20T20:41:10.919Z,12.23
2018-03-20T20:43:40.974Z,13.87
2018-03-20T20:46:10.303Z,12.47
2018-03-20T20:48:40.423Z,14.37
2018-03-20T20:51:09.758Z,12.33
2018-03-20T20:53:39.053Z,15.77
2018-03-20T20:56:08.368Z,13.37
2018-03-20T20:58:37.608Z,15.70
2018-03-20T21:01:06.834Z,12.00
2018-03-20T21:03:36.825Z,13.63
2018-03-20T21:06:06.030Z,11.97
2018-03-20T21:08:35.233Z,14.83
2018-03-20T21:11:04.549Z,15.07
2018-03-20T21:13:33.865Z,14.97
2018-03-20T21:16:03.379Z,9.93
2018-03-20T21:18:32.727Z,14.87
2018-03-20T21:21:03.565Z,14.43
2018-03-20T21:23:32.811Z,15.63
2018-03-20T21:26:02.796Z,14.50
2018-03-20T21:28:32.039Z,15.53
2018-03-20T21:31:01.302Z,14.63
2018-03-20T21:33:30.561Z,14.53
2018-03-20T21:35:59.936Z,13.93
2018-03-20T21:38:29.175Z,15.80
2018-03-20T21:40:58.376Z,14.07
2018-03-20T21:43:27.581Z,15.80
2018-03-20T21:45:56.801Z,15.00
2018-03-20T21:48:25.999Z,14.13
2018-03-20T21:50:55.228Z,18.13
2018-03-20T21:53:24.520Z,15.00
2018-03-20T21:55:53.774Z,17.53
2018-03-20T21:58:22.994Z,19.53
2018-03-20T22:00:53.032Z,16.27
2018-03-20T22:03:23.063Z,16.23
2018-03-20T22:05:52.347Z,16.60
2018-03-20T22:08:21.728Z,15.57
2018-03-20T22:10:51.042Z,17.47
2018-03-20T22:13:20.274Z,16.67
2018-03-20T22:15:49.528Z,17.17
2018-03-20T22:18:18.884Z,15.77
2018-03-20T22:20:48.114Z,15.67
2018-03-20T22:23:17.398Z,14.67
2018-03-20T22:25:46.650Z,14.17
2018-03-20T22:28:15.909Z,15.77
2018-03-20T22:30:45.163Z,18.00
2018-03-20T22:33:14.434Z,15.03
2018-03-20T22:35:43.652Z,14.00
2018-03-20T22:38:12.901Z,13.47
2018-03-20T22:40:42.940Z,16.03
2018-03-20T22:43:13.026Z,13.83
2018-03-20T22:45:42.326Z,13.90
2018-03-20T22:48:11.549Z,17.13
2018-03-20T22:50:40.772Z,13.80
2018-03-20T22:53:10.181Z,15.07
2018-03-20T22:55:39.422Z,15.77
2018-03-20T22:58:08.694Z,15.17
2018-03-20T23:00:37.852Z,15.07
2018-03-20T23:03:07.093Z,16.63
2018-03-20T23:05:36.294Z,12.60
2018-03-20T23:08:06.371Z,14.13
2018-03-20T23:10:35.597Z,13.03
2018-03-20T23:13:04.895Z,13.47
2018-03-20T23:15:34.310Z,14.23
2018-03-20T23:18:03.496Z,11.77
2018-03-20T23:20:32.746Z,11.17
2018-03-20T23:23:01.972Z,11.73
2018-03-20T23:25:31.265Z,12.27
2018-03-20T23:28:00.494Z,12.80
2018-03-20T23:30:31.228Z,12.87
2018-03-20T23:33:00.529Z,13.70
2018-03-20T23:35:29.745Z,12.17
2018-03-20T23:37:59.002Z,13.00
2018-03-20T23:40:28.365Z,13.77
2018-03-20T23:42:57.587Z,13.13
2018-03-20T23:45:26.832Z,12.50
2018-03-20T23:47:56.225Z,13.80
2018-03-20T23:50:25.474Z,13.07
2018-03-20T23:52:55.456Z,11.33
2018-03-20T23:55:24.652Z,11.73
2018-03-20T23:57:53.899Z,12.67
